createdAt,value
2018-11-04T00:00:32.777Z,20.82
2018-11-04T00:03:01.193Z,19.55
2018-11-04T00:05:29.627Z,22.10
2018-11-04T00:07:57.999Z,20.80
2018-11-04T00:10:26.270Z,20.35
2018-11-04T00:12:54.731Z,21.42
2018-11-04T00:15:23.200Z,22.50
2018-11-04T00:17:51.558Z,21.70
2018-11-04T00:20:20.082Z,20.48
2018-11-04T00:22:48.586Z,20.05
2018-11-04T00:25:17.182Z,21.45
2018-11-04T00:27:45.469Z,21.62
2018-11-04T00:30:14.873Z,20.10
2018-11-04T00:32:43.866Z,21.00
2018-11-04T00:35:12.439Z,19.98
2018-11-04T00:37:41.059Z,19.67
2018-11-04T00:40:09.482Z,19.57
2018-11-04T00:42:38.085Z,23.50
2018-11-04T00:45:07.897Z,27.90
2018-11-04T00:47:36.246Z,25.50
2018-11-04T00:50:04.892Z,24.50
2018-11-04T00:52:33.168Z,22.20
2018-11-04T00:55:01.466Z,22.40
2018-11-04T00:57:29.739Z,22.40
2018-11-04T00:59:58.027Z,21.82
2018-11-04T01:02:26.307Z,22.52
2018-11-04T01:04:54.595Z,22.70
2018-11-04T01:07:22.878Z,23.00
2018-11-04T01:09:51.163Z,21.00
2018-11-04T01:12:19.436Z,21.10
2018-11-04T01:14:47.703Z,20.50
2018-11-04T01:17:16.029Z,20.80
2018-11-04T01:19:44.314Z,19.57
2018-11-04T01:22:12.595Z,19.35
2018-11-04T01:24:40.861Z,19.27
2018-11-04T01:27:09.147Z,19.20
2018-11-04T01:29:37.429Z,22.05
2018-11-04T01:32:06.105Z,21.85
2018-11-04T01:34:34.470Z,21.33
2018-11-04T01:37:02.733Z,21.80
2018-11-04T01:39:31.047Z,21.45
2018-11-04T01:41:59.391Z,21.60
2018-11-04T01:44:27.682Z,21.00
2018-11-04T01:46:55.968Z,20.82
2018-11-04T01:49:24.233Z,20.30
2018-11-04T01:51:52.551Z,20.10
2018-11-04T01:54:20.832Z,20.83
2018-11-04T01:56:49.160Z,23.52
2018-11-04T01:59:17.476Z,23.75
2018-11-04T02:01:45.798Z,23.62
2018-11-04T02:04:14.499Z,23.57
2018-11-04T02:06:42.783Z,23.00
2018-11-04T02:09:11.915Z,24.57
2018-11-04T02:11:40.415Z,24.60
2018-11-04T02:14:08.701Z,23.35
2018-11-04T02:16:37.258Z,21.90
2018-11-04T02:19:05.657Z,21.75
2018-11-04T02:21:34.004Z,22.32
2018-11-04T02:24:02.427Z,22.05
2018-11-04T02:26:30.715Z,23.07
2018-11-04T02:28:59.011Z,23.42
2018-11-04T02:31:27.453Z,21.27
2018-11-04T02:33:55.733Z,20.60
2018-11-04T02:36:24.128Z,20.75
2018-11-04T02:38:52.392Z,22.23
2018-11-04T02:41:20.704Z,22.58
2018-11-04T02:43:48.995Z,23.35
2018-11-04T02:46:17.292Z,20.70
2018-11-04T02:48:45.564Z,20.50
2018-11-04T02:51:13.893Z,19.55
2018-11-04T02:53:42.130Z,19.95
2018-11-04T02:56:10.416Z,20.85
2018-11-04T02:58:38.703Z,20.25
2018-11-04T03:01:06.993Z,21.73
2018-11-04T03:03:35.265Z,25.02
2018-11-04T03:06:03.543Z,25.70
2018-11-04T03:08:31.821Z,23.40
2018-11-04T03:11:00.071Z,23.33
2018-11-04T03:13:28.347Z,21.97
2018-11-04T03:15:56.632Z,22.10
2018-11-04T03:18:24.925Z,22.77
2018-11-04T03:20:53.321Z,22.73
2018-11-04T03:26:01.405Z,22.55
2018-11-04T03:28:29.664Z,23.00
2018-11-04T03:30:57.973Z,23.40
2018-11-04T03:33:26.222Z,24.67
2018-11-04T03:35:54.502Z,23.67
2018-11-04T03:38:22.772Z,24.30
2018-11-04T03:40:51.043Z,23.00
2018-11-04T03:43:19.376Z,23.67
2018-11-04T03:45:47.645Z,22.67
2018-11-04T03:48:15.920Z,22.77
2018-11-04T03:50:44.252Z,23.27
2018-11-04T03:53:12.550Z,24.02
2018-11-04T03:55:40.871Z,24.40
2018-11-04T03:58:09.180Z,24.25
2018-11-04T04:00:37.451Z,25.97
2018-11-04T04:03:05.919Z,24.02
2018-11-04T04:05:34.156Z,25.12
2018-11-04T04:08:02.487Z,24.80
2018-11-04T04:10:30.806Z,25.32
2018-11-04T04:12:59.111Z,24.65
2018-11-04T04:15:27.421Z,24.07
2018-11-04T04:17:55.725Z,24.80
2018-11-04T04:20:24.035Z,25.40
2018-11-04T04:22:52.316Z,25.32
2018-11-04T04:25:20.600Z,24.70
2018-11-04T04:27:48.919Z,24.57
2018-11-04T04:30:17.183Z,24.27
2018-11-04T04:32:45.464Z,23.75
2018-11-04T04:35:13.767Z,23.02
2018-11-04T04:37:42.331Z,25.57
2018-11-04T04:40:10.915Z,23.95
2018-11-04T04:42:39.268Z,24.65
2018-11-04T04:45:07.676Z,24.18
2018-11-04T04:47:36.051Z,24.60
2018-11-04T04:50:04.949Z,24.55
2018-11-04T04:52:33.316Z,26.00
2018-11-04T04:55:01.606Z,25.43
2018-11-04T04:57:29.903Z,24.57
2018-11-04T04:59:58.350Z,24.72
2018-11-04T05:02:26.811Z,26.85
2018-11-04T05:04:55.190Z,24.25
2018-11-04T05:07:23.471Z,25.70
2018-11-04T05:09:51.927Z,26.07
2018-11-04T05:12:20.201Z,25.37
2018-11-04T05:14:48.599Z,25.97
2018-11-04T05:17:16.884Z,24.92
2018-11-04T05:19:45.155Z,26.00
2018-11-04T05:22:13.431Z,25.30
2018-11-04T05:24:41.711Z,25.17
2018-11-04T05:27:10.007Z,25.68
2018-11-04T05:29:38.281Z,26.20
2018-11-04T05:32:06.524Z,25.48
2018-11-04T05:34:34.823Z,25.08
2018-11-04T05:37:03.111Z,25.57
2018-11-04T05:39:31.422Z,24.55
2018-11-04T05:41:59.692Z,26.00
2018-11-04T05:44:27.936Z,25.65
2018-11-04T05:46:56.231Z,26.63
2018-11-04T05:49:24.508Z,26.42
2018-11-04T05:51:52.775Z,25.77
2018-11-04T05:54:21.119Z,26.57
2018-11-04T05:56:49.426Z,25.73
2018-11-04T05:59:17.688Z,26.05
2018-11-04T06:01:46.136Z,27.30
2018-11-04T06:04:14.640Z,26.25
2018-11-04T06:06:42.943Z,26.95
2018-11-04T06:09:11.356Z,26.60
2018-11-04T06:11:39.878Z,28.07
2018-11-04T06:14:08.477Z,26.52
2018-11-04T06:16:36.752Z,27.95
2018-11-04T06:19:05.538Z,27.30
2018-11-04T06:21:33.845Z,29.20
2018-11-04T06:24:02.102Z,28.33
2018-11-04T06:26:30.368Z,28.27
2018-11-04T06:28:58.639Z,27.90
2018-11-04T06:31:26.987Z,27.93
2018-11-04T06:33:55.259Z,28.60
2018-11-04T06:36:23.506Z,30.57
2018-11-04T06:38:51.896Z,27.90
2018-11-04T06:41:20.203Z,28.47
2018-11-04T06:43:48.448Z,28.77
2018-11-04T06:46:16.827Z,28.73
2018-11-04T06:48:45.244Z,28.52
2018-11-04T06:51:13.606Z,28.90
2018-11-04T06:53:41.907Z,28.85
2018-11-04T06:56:10.170Z,29.05
2018-11-04T06:58:38.471Z,29.45
2018-11-04T07:01:06.729Z,29.12
2018-11-04T07:03:35.034Z,27.93
2018-11-04T07:06:03.316Z,28.80
2018-11-04T07:08:31.598Z,29.27
2018-11-04T07:10:59.904Z,27.50
2018-11-04T07:13:28.155Z,28.07
2018-11-04T07:15:56.411Z,29.52
2018-11-04T07:18:24.726Z,27.87
2018-11-04T07:20:53.044Z,28.60
2018-11-04T07:23:21.319Z,28.60
2018-11-04T07:25:49.621Z,28.55
2018-11-04T07:28:17.855Z,29.15
2018-11-04T07:30:46.149Z,29.35
2018-11-04T07:33:14.455Z,29.15
2018-11-04T07:35:42.728Z,28.63
2018-11-04T07:38:11.079Z,30.80
2018-11-04T07:40:39.374Z,31.27
2018-11-04T07:43:07.636Z,30.20
2018-11-04T07:45:35.933Z,30.45
2018-11-04T07:48:04.230Z,29.67
2018-11-04T07:50:32.577Z,30.70
2018-11-04T07:53:00.836Z,32.67
2018-11-04T07:55:29.122Z,32.17
2018-11-04T07:57:57.405Z,31.37
2018-11-04T08:00:25.737Z,31.25
2018-11-04T08:02:54.016Z,32.03
2018-11-04T08:05:22.336Z,30.57
2018-11-04T08:07:50.656Z,30.97
2018-11-04T08:10:18.939Z,31.37
2018-11-04T08:12:47.211Z,29.82
2018-11-04T08:15:15.547Z,30.13
2018-11-04T08:17:43.858Z,29.40
2018-11-04T08:20:12.170Z,30.82
2018-11-04T08:22:40.873Z,29.77
2018-11-04T08:25:09.139Z,30.43
2018-11-04T08:27:37.680Z,30.25
2018-11-04T08:30:07.456Z,29.95
2018-11-04T08:32:35.860Z,30.35
2018-11-04T08:35:04.179Z,29.63
2018-11-04T08:37:32.505Z,30.73
2018-11-04T08:40:01.140Z,30.55
2018-11-04T08:42:29.384Z,30.48
2018-11-04T08:44:57.646Z,29.42
2018-11-04T08:47:25.890Z,31.80
2018-11-04T08:49:54.154Z,31.05
2018-11-04T08:52:22.510Z,31.23
2018-11-04T08:54:50.814Z,30.35
2018-11-04T08:57:19.129Z,30.80
2018-11-04T08:59:47.448Z,30.75
2018-11-04T09:02:15.756Z,31.90
2018-11-04T09:04:44.093Z,31.40
2018-11-04T09:07:12.348Z,31.68
2018-11-04T09:09:40.617Z,31.35
2018-11-04T09:12:08.914Z,31.12
2018-11-04T09:14:37.203Z,31.57
2018-11-04T09:17:06.078Z,31.45
2018-11-04T09:19:34.332Z,32.40
2018-11-04T09:22:02.888Z,33.40
2018-11-04T09:24:30.913Z,31.70
2018-11-04T09:26:59.173Z,30.70
2018-11-04T09:29:27.459Z,31.57
2018-11-04T09:31:55.741Z,31.65
2018-11-04T09:34:24.031Z,32.33
2018-11-04T09:36:52.383Z,32.97
2018-11-04T09:39:20.687Z,33.90
2018-11-04T09:41:49.031Z,32.55
2018-11-04T09:44:17.313Z,32.53
2018-11-04T09:46:45.643Z,32.10
2018-11-04T09:49:14.338Z,32.17
2018-11-04T09:51:42.793Z,31.50
2018-11-04T09:54:11.048Z,32.60
2018-11-04T09:56:39.402Z,34.20
2018-11-04T09:59:07.677Z,33.18
2018-11-04T10:01:35.970Z,32.42
2018-11-04T10:04:04.247Z,32.78
2018-11-04T10:06:32.575Z,35.55
2018-11-04T10:09:00.843Z,32.80
2018-11-04T10:11:29.199Z,34.05
2018-11-04T10:13:57.515Z,32.90
2018-11-04T10:16:25.931Z,32.17
2018-11-04T10:18:54.215Z,32.48
2018-11-04T10:21:22.504Z,32.83
2018-11-04T10:23:50.784Z,31.40
2018-11-04T10:26:19.080Z,31.60
2018-11-04T10:28:47.355Z,31.50
2018-11-04T10:31:15.626Z,31.65
2018-11-04T10:33:43.907Z,31.85
2018-11-04T10:36:12.176Z,33.13
2018-11-04T10:38:40.478Z,32.70
2018-11-04T10:41:08.801Z,32.78
2018-11-04T10:43:37.097Z,33.30
2018-11-04T10:46:05.564Z,33.30
2018-11-04T10:48:33.875Z,33.85
2018-11-04T10:51:02.192Z,33.40
2018-11-04T10:53:30.467Z,33.88
2018-11-04T10:55:58.887Z,32.73
2018-11-04T10:58:27.136Z,33.73
2018-11-04T11:01:00.815Z,33.10
2018-11-04T11:03:29.123Z,33.13
2018-11-04T11:05:57.634Z,35.30
2018-11-04T11:08:25.907Z,33.53
2018-11-04T11:10:54.366Z,32.80
2018-11-04T11:13:22.636Z,33.15
2018-11-04T11:15:51.411Z,34.23
2018-11-04T11:18:20.176Z,33.30
2018-11-04T11:20:48.469Z,33.20
2018-11-04T11:23:16.979Z,34.33
2018-11-04T11:25:45.162Z,33.85
2018-11-04T11:28:13.517Z,34.38
2018-11-04T11:30:42.091Z,31.90
2018-11-04T11:33:10.483Z,31.90
2018-11-04T11:35:38.769Z,33.98
2018-11-04T11:38:07.248Z,32.98
2018-11-04T11:40:35.451Z,33.15
2018-11-04T11:43:03.794Z,35.03
2018-11-04T11:45:32.070Z,33.95
2018-11-04T11:48:00.895Z,33.13
2018-11-04T11:50:29.186Z,33.40
2018-11-04T11:52:57.666Z,32.73
2018-11-04T11:55:25.969Z,32.03
2018-11-04T11:57:54.266Z,33.30
2018-11-04T12:00:23.340Z,33.50
2018-11-04T12:02:51.677Z,32.83
2018-11-04T12:05:20.010Z,32.48
2018-11-04T12:07:48.260Z,32.45
2018-11-04T12:10:16.589Z,33.60
2018-11-04T12:12:44.874Z,32.90
2018-11-04T12:15:14.169Z,33.40
2018-11-04T12:17:42.581Z,33.73
2018-11-04T12:20:11.799Z,39.00
2018-11-04T12:22:40.164Z,38.17
2018-11-04T12:25:09.865Z,32.85
2018-11-04T12:27:38.141Z,34.33
2018-11-04T12:30:09.235Z,33.50
2018-11-04T12:32:37.723Z,32.20
2018-11-04T12:35:06.891Z,32.60
2018-11-04T12:37:35.537Z,32.60
2018-11-04T12:40:04.108Z,32.28
2018-11-04T12:42:32.459Z,33.50
2018-11-04T12:45:00.894Z,33.40
2018-11-04T12:47:29.198Z,32.30
2018-11-04T12:49:57.495Z,33.15
2018-11-04T12:52:25.864Z,33.50
2018-11-04T12:54:54.113Z,31.57
2018-11-04T12:57:22.426Z,32.73
2018-11-04T12:59:50.832Z,31.77
2018-11-04T13:02:19.141Z,31.45
2018-11-04T13:04:47.524Z,31.65
2018-11-04T13:07:15.816Z,32.55
2018-11-04T13:09:44.151Z,32.13
2018-11-04T13:12:12.507Z,32.95
2018-11-04T13:14:40.799Z,32.83
2018-11-04T13:17:09.132Z,32.80
2018-11-04T13:19:37.408Z,31.67
2018-11-04T13:22:05.718Z,33.13
2018-11-04T13:24:34.063Z,30.97
2018-11-04T13:27:02.373Z,31.10
2018-11-04T13:29:30.652Z,31.77
2018-11-04T13:31:59.063Z,32.38
2018-11-04T13:34:27.484Z,33.40
2018-11-04T13:36:55.782Z,32.43
2018-11-04T13:39:24.098Z,31.37
2018-11-04T13:41:52.384Z,33.38
2018-11-04T13:44:20.984Z,32.40
2018-11-04T13:46:49.385Z,30.85
2018-11-04T13:49:18.045Z,32.20
2018-11-04T13:51:46.347Z,31.35
2018-11-04T13:54:14.674Z,31.55
2018-11-04T13:56:42.959Z,33.28
2018-11-04T13:59:11.247Z,32.93
2018-11-04T14:01:39.815Z,33.65
2018-11-04T14:04:08.112Z,32.17
2018-11-04T14:06:36.555Z,31.73
2018-11-04T14:09:05.986Z,32.90
2018-11-04T14:11:34.420Z,31.50
2018-11-04T14:14:02.827Z,32.25
2018-11-04T14:16:31.130Z,31.80
2018-11-04T14:18:59.468Z,30.73
2018-11-04T14:21:27.883Z,35.15
2018-11-04T14:23:56.367Z,33.90
2018-11-04T14:26:24.572Z,33.13
2018-11-04T14:28:52.922Z,33.40
2018-11-04T14:31:21.248Z,33.30
2018-11-04T14:33:49.611Z,32.27
2018-11-04T14:36:18.095Z,32.30
2018-11-04T14:38:46.484Z,33.60
2018-11-04T14:41:14.755Z,35.08
2018-11-04T14:43:43.046Z,33.35
2018-11-04T14:46:11.418Z,33.03
2018-11-04T14:48:39.752Z,32.03
2018-11-04T14:51:08.048Z,33.10
2018-11-04T14:53:36.336Z,32.65
2018-11-04T14:56:04.834Z,31.97
2018-11-04T14:58:33.207Z,31.75
2018-11-04T15:01:01.500Z,29.50
2018-11-04T15:03:29.775Z,30.40
2018-11-04T15:05:58.155Z,30.45
2018-11-04T15:08:26.641Z,29.40
2018-11-04T15:10:55.049Z,30.25
2018-11-04T15:13:23.345Z,29.72
2018-11-04T15:15:51.703Z,28.77
2018-11-04T15:18:19.994Z,26.93
2018-11-04T15:20:48.567Z,25.13
2018-11-04T15:23:17.075Z,23.90
2018-11-04T15:25:45.420Z,24.00
2018-11-04T15:28:13.843Z,24.30
2018-11-04T15:30:42.169Z,23.97
2018-11-04T15:33:10.543Z,22.48
2018-11-04T15:35:38.808Z,21.93
2018-11-04T15:38:07.193Z,21.60
2018-11-04T15:40:35.978Z,21.20
2018-11-04T15:43:04.600Z,20.77
2018-11-04T15:45:33.072Z,20.65
2018-11-04T15:48:01.492Z,21.07
2018-11-04T15:50:29.939Z,19.93
2018-11-04T15:52:58.724Z,20.37
2018-11-04T15:55:27.003Z,20.15
2018-11-04T15:57:55.302Z,21.07
2018-11-04T16:00:23.579Z,19.47
2018-11-04T16:02:51.913Z,20.70
2018-11-04T16:05:20.321Z,21.48
2018-11-04T16:07:48.632Z,20.57
2018-11-04T16:10:16.972Z,21.35
2018-11-04T16:12:45.453Z,21.00
2018-11-04T16:15:14.815Z,21.63
2018-11-04T16:17:43.793Z,21.95
2018-11-04T16:20:13.566Z,21.73
2018-11-04T16:22:42.526Z,21.90
2018-11-04T16:25:11.450Z,24.60
2018-11-04T16:27:39.988Z,24.43
2018-11-04T16:30:09.515Z,23.87
2018-11-04T16:32:38.269Z,25.48
2018-11-04T16:35:07.443Z,25.30
2018-11-04T16:37:35.771Z,22.55
2018-11-04T16:40:04.037Z,20.32
2018-11-04T16:42:32.334Z,19.82
2018-11-04T16:45:00.604Z,21.17
2018-11-04T16:47:28.912Z,22.13
2018-11-04T16:49:57.211Z,23.02
2018-11-04T16:52:25.751Z,25.70
2018-11-04T16:54:54.200Z,20.68
2018-11-04T16:57:22.445Z,20.37
2018-11-04T16:59:50.756Z,19.50
2018-11-04T17:02:19.068Z,18.70
2018-11-04T17:04:47.667Z,19.30
2018-11-04T17:07:15.838Z,17.60
2018-11-04T17:09:44.216Z,18.83
2018-11-04T17:12:12.498Z,19.82
2018-11-04T17:14:40.774Z,19.10
2018-11-04T17:17:09.031Z,18.00
2018-11-04T17:19:37.358Z,18.70
2018-11-04T17:22:05.899Z,18.67
2018-11-04T17:24:34.158Z,17.87
2018-11-04T17:27:02.442Z,18.57
2018-11-04T17:29:30.738Z,19.15
2018-11-04T17:31:59.007Z,19.77
2018-11-04T17:34:27.280Z,19.57
2018-11-04T17:36:55.540Z,18.37
2018-11-04T17:39:23.853Z,19.30
2018-11-04T17:41:52.122Z,19.75
2018-11-04T17:44:20.505Z,18.85
2018-11-04T17:46:48.732Z,19.40
2018-11-04T17:49:17.141Z,17.90
2018-11-04T17:51:45.403Z,17.83
2018-11-04T17:54:13.766Z,18.80
2018-11-04T17:56:42.055Z,18.17
2018-11-04T17:59:10.312Z,18.50
2018-11-04T18:01:38.611Z,17.27
2018-11-04T18:04:07.036Z,17.80
2018-11-04T18:06:35.445Z,18.55
2018-11-04T18:09:04.850Z,18.07
2018-11-04T18:11:33.116Z,17.63
2018-11-04T18:14:01.491Z,17.90
2018-11-04T18:16:29.711Z,18.07
2018-11-04T18:18:58.035Z,21.83
2018-11-04T18:21:26.334Z,18.77
2018-11-04T18:23:54.640Z,18.07
2018-11-04T18:26:23.035Z,18.17
2018-11-04T18:28:51.403Z,19.05
2018-11-04T18:31:19.707Z,19.20
2018-11-04T18:33:48.026Z,18.80
2018-11-04T18:36:16.341Z,19.40
2018-11-04T18:38:44.668Z,19.10
2018-11-04T18:41:12.958Z,20.60
2018-11-04T18:43:41.772Z,21.12
2018-11-04T18:46:10.046Z,20.48
2018-11-04T18:48:38.310Z,24.10
2018-11-04T18:51:06.603Z,24.73
2018-11-04T18:53:34.873Z,23.20
2018-11-04T18:56:03.175Z,22.67
2018-11-04T18:58:31.535Z,21.33
2018-11-04T19:00:59.845Z,21.10
2018-11-04T19:03:28.405Z,21.82
2018-11-04T19:05:56.724Z,22.07
2018-11-04T19:08:25.030Z,21.90
2018-11-04T19:10:53.338Z,23.30
2018-11-04T19:13:21.606Z,22.20
2018-11-04T19:15:50.027Z,21.85
2018-11-04T19:18:18.306Z,21.15
2018-11-04T19:20:46.582Z,20.85
2018-11-04T19:23:15.014Z,20.40
2018-11-04T19:25:43.281Z,20.88
2018-11-04T19:28:11.580Z,20.92
2018-11-04T19:30:39.903Z,20.40
2018-11-04T19:33:08.172Z,20.45
2018-11-04T19:35:37.036Z,21.45
2018-11-04T19:38:05.408Z,20.20
2018-11-04T19:40:33.913Z,20.65
2018-11-04T19:43:02.474Z,19.65
2018-11-04T19:45:30.697Z,19.60
2018-11-04T19:47:59.059Z,19.45
2018-11-04T19:50:27.274Z,19.40
2018-11-04T19:52:55.561Z,17.73
2018-11-04T19:55:23.835Z,16.52
2018-11-04T19:57:52.180Z,17.30
2018-11-04T20:00:20.487Z,16.82
2018-11-04T20:02:48.771Z,16.30
2018-11-04T20:05:17.130Z,18.37
2018-11-04T20:07:45.390Z,18.83
2018-11-04T20:10:15.807Z,19.30
2018-11-04T20:12:49.427Z,19.55
2018-11-04T20:15:17.721Z,21.40
2018-11-04T20:17:46.983Z,18.37
2018-11-04T20:20:17.214Z,19.98
2018-11-04T20:22:45.482Z,19.48
2018-11-04T20:25:19.167Z,18.63
2018-11-04T20:27:48.214Z,18.90
2018-11-04T20:30:16.492Z,18.95
2018-11-04T20:32:50.262Z,17.92
2018-11-04T20:35:18.540Z,20.00
2018-11-04T20:37:46.858Z,19.10
2018-11-04T20:40:20.453Z,17.98
2018-11-04T20:42:48.776Z,17.40
2018-11-04T20:45:17.126Z,19.30
2018-11-04T20:47:50.782Z,17.65
2018-11-04T20:50:24.539Z,17.57
2018-11-04T20:52:52.838Z,17.85
2018-11-04T20:55:21.095Z,17.10
2018-11-04T20:57:58.308Z,15.80
2018-11-04T21:00:26.797Z,16.30
2018-11-04T21:02:55.464Z,16.63
2018-11-04T21:05:23.773Z,15.70
2018-11-04T21:07:52.568Z,17.02
2018-11-04T21:10:20.909Z,15.85
2018-11-04T21:12:49.206Z,16.07
2018-11-04T21:15:17.560Z,16.60
2018-11-04T21:17:45.863Z,17.45
2018-11-04T21:20:14.124Z,19.45
2018-11-04T21:22:42.531Z,24.50
2018-11-04T21:25:10.845Z,21.10
2018-11-04T21:27:39.164Z,19.85
2018-11-04T21:30:09.555Z,19.95
2018-11-04T21:32:38.139Z,19.07
2018-11-04T21:35:07.424Z,18.80
2018-11-04T21:37:35.818Z,17.92
2018-11-04T21:40:04.594Z,21.82
2018-11-04T21:42:33.063Z,26.50
2018-11-04T21:45:01.261Z,25.55
2018-11-04T21:47:29.542Z,24.18
2018-11-04T21:49:57.866Z,21.80
2018-11-04T21:52:26.185Z,20.70
2018-11-04T21:54:54.456Z,19.85
2018-11-04T21:57:22.776Z,19.10
2018-11-04T21:59:51.097Z,18.45
2018-11-04T22:02:20.731Z,18.17
2018-11-04T22:04:48.980Z,17.90
2018-11-04T22:07:17.285Z,18.02
2018-11-04T22:09:45.883Z,18.27
2018-11-04T22:12:14.183Z,18.60
2018-11-04T22:14:42.464Z,17.62
2018-11-04T22:17:10.758Z,18.42
2018-11-04T22:19:39.054Z,17.73
2018-11-04T22:22:07.428Z,18.60
2018-11-04T22:24:35.646Z,18.02
2018-11-04T22:27:03.915Z,19.02
2018-11-04T22:29:32.379Z,19.52
2018-11-04T22:32:00.679Z,19.30
2018-11-04T22:34:28.965Z,18.67
2018-11-04T22:36:57.276Z,17.50
2018-11-04T22:39:25.820Z,17.17
2018-11-04T22:41:54.153Z,16.40
2018-11-04T22:44:22.435Z,17.30
2018-11-04T22:46:50.739Z,17.37
2018-11-04T22:49:19.046Z,17.67
2018-11-04T22:51:47.322Z,16.37
2018-11-04T22:54:15.643Z,17.67
2018-11-04T22:56:43.958Z,16.93
2018-11-04T22:59:12.348Z,16.48
2018-11-04T23:01:40.812Z,17.23
2018-11-04T23:04:09.048Z,16.02
2018-11-04T23:06:37.271Z,16.87
2018-11-04T23:09:09.176Z,15.80
2018-11-04T23:11:37.723Z,16.40
2018-11-04T23:14:06.080Z,15.53
2018-11-04T23:16:34.352Z,15.23
2018-11-04T23:19:02.823Z,16.25
2018-11-04T23:21:31.136Z,15.50
2018-11-04T23:23:59.579Z,15.70
2018-11-04T23:26:27.945Z,17.40
2018-11-04T23:28:56.408Z,16.90
2018-11-04T23:31:24.686Z,18.15
2018-11-04T23:33:53.054Z,14.95
2018-11-04T23:36:21.548Z,14.55
2018-11-04T23:38:49.816Z,15.00
2018-11-04T23:41:18.191Z,15.65
2018-11-04T23:43:46.499Z,14.93
2018-11-04T23:46:14.787Z,15.48
2018-11-04T23:48:43.127Z,15.70
2018-11-04T23:51:11.430Z,14.87
2018-11-04T23:53:40.414Z,15.30
2018-11-04T23:56:08.703Z,16.17
2018-11-04T23:58:36.991Z,15.30
